sensor_id;sensor_type;location;lat;lon;timestamp;temperature;humidity
46356;DHT22;32066;49.474;11.106;2023-09-12T00:02:07;23.40;93.00
46356;DHT22;32066;49.474;11.106;2023-09-12T00:04:38;23.30;93.00
46356;DHT22;32066;49.474;11.106;2023-09-12T00:07:07;23.30;93.00
46356;DHT22;32066;49.474;11.106;2023-09-12T00:09:35;23.30;93.10
46356;DHT22;32066;49.474;11.106;2023-09-12T00:12:05;23.20;93.00
46356;DHT22;32066;49.474;11.106;2023-09-12T00:14:34;23.20;93.00
46356;DHT22;32066;49.474;11.106;2023-09-12T00:17:03;23.30;93.00
46356;DHT22;32066;49.474;11.106;2023-09-12T00:19:31;23.20;93.00
46356;DHT22;32066;49.474;11.106;2023-09-12T00:22:03;23.10;93.20
46356;DHT22;32066;49.474;11.106;2023-09-12T00:24:32;23.00;93.20
46356;DHT22;32066;49.474;11.106;2023-09-12T00:27:00;23.00;93.30
46356;DHT22;32066;49.474;11.106;2023-09-12T00:29:30;22.90;93.50
46356;DHT22;32066;49.474;11.106;2023-09-12T00:31:59;22.90;93.30
46356;DHT22;32066;49.474;11.106;2023-09-12T00:34:28;23.00;93.30
46356;DHT22;32066;49.474;11.106;2023-09-12T00:36:57;22.90;93.20
46356;DHT22;32066;49.474;11.106;2023-09-12T00:39:29;22.80;93.30
46356;DHT22;32066;49.474;11.106;2023-09-12T00:41:57;22.80;93.30
46356;DHT22;32066;49.474;11.106;2023-09-12T00:44:26;22.80;93.30
46356;DHT22;32066;49.474;11.106;2023-09-12T00:46:55;22.80;93.20
46356;DHT22;32066;49.474;11.106;2023-09-12T00:49:25;22.80;93.20
46356;DHT22;32066;49.474;11.106;2023-09-12T00:51:54;22.80;93.20
46356;DHT22;32066;49.474;11.106;2023-09-12T00:54:24;22.80;93.20
46356;DHT22;32066;49.474;11.106;2023-09-12T00:56:56;22.80;93.40
46356;DHT22;32066;49.474;11.106;2023-09-12T00:59:25;22.80;93.30
46356;DHT22;32066;49.474;11.106;2023-09-12T01:01:54;22.80;93.30
46356;DHT22;32066;49.474;11.106;2023-09-12T01:04:23;22.80;93.50
46356;DHT22;32066;49.474;11.106;2023-09-12T01:06:52;22.80;93.40
46356;DHT22;32066;49.474;11.106;2023-09-12T01:09:20;22.80;93.30
46356;DHT22;32066;49.474;11.106;2023-09-12T01:11:49;22.80;93.50
46356;DHT22;32066;49.474;11.106;2023-09-12T01:14:21;22.70;93.50
46356;DHT22;32066;49.474;11.106;2023-09-12T01:16:50;22.60;93.50
46356;DHT22;32066;49.474;11.106;2023-09-12T01:19:18;22.60;93.50
46356;DHT22;32066;49.474;11.106;2023-09-12T01:22:10;22.60;93.50
46356;DHT22;32066;49.474;11.106;2023-09-12T01:25:00;22.60;93.40
46356;DHT22;32066;49.474;11.106;2023-09-12T01:27:39;22.60;93.20
46356;DHT22;32066;49.474;11.106;2023-09-12T01:30:10;22.60;93.10
46356;DHT22;32066;49.474;11.106;2023-09-12T01:32:39;22.50;93.40
46356;DHT22;32066;49.474;11.106;2023-09-12T01:35:08;22.50;93.40
46356;DHT22;32066;49.474;11.106;2023-09-12T01:37:37;22.50;93.20
46356;DHT22;32066;49.474;11.106;2023-09-12T01:40:07;22.60;93.10
46356;DHT22;32066;49.474;11.106;2023-09-12T01:42:43;22.60;93.00
46356;DHT22;32066;49.474;11.106;2023-09-12T01:45:15;22.50;92.80
46356;DHT22;32066;49.474;11.106;2023-09-12T01:47:45;22.50;92.80
46356;DHT22;32066;49.474;11.106;2023-09-12T01:50:15;22.50;92.90
46356;DHT22;32066;49.474;11.106;2023-09-12T01:52:44;22.50;92.90
46356;DHT22;32066;49.474;11.106;2023-09-12T01:55:14;22.50;92.90
46356;DHT22;32066;49.474;11.106;2023-09-12T01:57:45;22.50;93.00
46356;DHT22;32066;49.474;11.106;2023-09-12T02:00:17;22.50;93.00
46356;DHT22;32066;49.474;11.106;2023-09-12T02:02:46;22.50;92.80
46356;DHT22;32066;49.474;11.106;2023-09-12T02:05:16;22.50;92.80
46356;DHT22;32066;49.474;11.106;2023-09-12T02:07:46;22.40;92.90
46356;DHT22;32066;49.474;11.106;2023-09-12T02:10:15;22.40;93.00
46356;DHT22;32066;49.474;11.106;2023-09-12T02:12:47;22.40;93.10
46356;DHT22;32066;49.474;11.106;2023-09-12T02:15:16;22.40;93.00
46356;DHT22;32066;49.474;11.106;2023-09-12T02:17:44;22.40;93.00
46356;DHT22;32066;49.474;11.106;2023-09-12T02:20:16;22.40;93.10
46356;DHT22;32066;49.474;11.106;2023-09-12T02:22:45;22.40;93.20
46356;DHT22;32066;49.474;11.106;2023-09-12T02:25:13;22.40;93.10
46356;DHT22;32066;49.474;11.106;2023-09-12T02:27:42;22.40;93.10
46356;DHT22;32066;49.474;11.106;2023-09-12T02:30:14;22.40;93.10
46356;DHT22;32066;49.474;11.106;2023-09-12T02:32:42;22.40;92.90
46356;DHT22;32066;49.474;11.106;2023-09-12T02:35:11;22.30;92.90
46356;DHT22;32066;49.474;11.106;2023-09-12T02:37:40;22.30;92.90
46356;DHT22;32066;49.474;11.106;2023-09-12T02:40:09;22.30;93.00
46356;DHT22;32066;49.474;11.106;2023-09-12T02:42:39;22.10;93.10
46356;DHT22;32066;49.474;11.106;2023-09-12T02:45:09;22.00;93.20
46356;DHT22;32066;49.474;11.106;2023-09-12T02:47:40;22.00;93.30
46356;DHT22;32066;49.474;11.106;2023-09-12T02:50:12;21.90;93.20
46356;DHT22;32066;49.474;11.106;2023-09-12T02:52:40;21.90;93.20
46356;DHT22;32066;49.474;11.106;2023-09-12T02:55:09;21.90;93.20
46356;DHT22;32066;49.474;11.106;2023-09-12T02:57:37;22.00;93.30
46356;DHT22;32066;49.474;11.106;2023-09-12T03:00:07;22.00;93.30
46356;DHT22;32066;49.474;11.106;2023-09-12T03:02:39;22.00;93.20
46356;DHT22;32066;49.474;11.106;2023-09-12T03:05:13;22.10;93.20
46356;DHT22;32066;49.474;11.106;2023-09-12T03:07:42;22.10;93.10
46356;DHT22;32066;49.474;11.106;2023-09-12T03:10:10;22.10;93.00
46356;DHT22;32066;49.474;11.106;2023-09-12T03:12:39;22.00;93.10
46356;DHT22;32066;49.474;11.106;2023-09-12T03:15:09;22.10;93.10
46356;DHT22;32066;49.474;11.106;2023-09-12T03:17:41;22.10;92.90
46356;DHT22;32066;49.474;11.106;2023-09-12T03:20:11;22.00;92.90
46356;DHT22;32066;49.474;11.106;2023-09-12T03:22:40;21.90;93.00
46356;DHT22;32066;49.474;11.106;2023-09-12T03:25:08;22.00;93.10
46356;DHT22;32066;49.474;11.106;2023-09-12T03:27:37;22.00;93.10
46356;DHT22;32066;49.474;11.106;2023-09-12T03:30:07;22.00;93.00
46356;DHT22;32066;49.474;11.106;2023-09-12T03:32:36;22.00;93.00
46356;DHT22;32066;49.474;11.106;2023-09-12T03:35:08;22.10;92.80
46356;DHT22;32066;49.474;11.106;2023-09-12T03:37:37;22.00;92.70
46356;DHT22;32066;49.474;11.106;2023-09-12T03:40:10;22.10;92.80
46356;DHT22;32066;49.474;11.106;2023-09-12T03:42:39;22.10;92.80
46356;DHT22;32066;49.474;11.106;2023-09-12T03:45:09;22.00;92.70
46356;DHT22;32066;49.474;11.106;2023-09-12T03:47:38;22.00;92.80
46356;DHT22;32066;49.474;11.106;2023-09-12T03:50:09;21.90;92.80
46356;DHT22;32066;49.474;11.106;2023-09-12T03:52:38;21.90;92.90
46356;DHT22;32066;49.474;11.106;2023-09-12T03:55:08;21.90;92.80
46356;DHT22;32066;49.474;11.106;2023-09-12T03:57:37;21.90;92.80
46356;DHT22;32066;49.474;11.106;2023-09-12T04:00:07;21.80;92.90
46356;DHT22;32066;49.474;11.106;2023-09-12T04:02:45;21.70;92.90
46356;DHT22;32066;49.474;11.106;2023-09-12T04:05:17;21.60;92.90
46356;DHT22;32066;49.474;11.106;2023-09-12T04:07:46;21.60;93.00
46356;DHT22;32066;49.474;11.106;2023-09-12T04:10:14;21.50;93.00
46356;DHT22;32066;49.474;11.106;2023-09-12T04:12:44;21.50;92.90
46356;DHT22;32066;49.474;11.106;2023-09-12T04:15:13;21.40;93.10
46356;DHT22;32066;49.474;11.106;2023-09-12T04:17:42;21.40;93.20
46356;DHT22;32066;49.474;11.106;2023-09-12T04:20:10;21.40;93.20
46356;DHT22;32066;49.474;11.106;2023-09-12T04:22:43;21.40;93.20
46356;DHT22;32066;49.474;11.106;2023-09-12T04:25:12;21.40;93.30
46356;DHT22;32066;49.474;11.106;2023-09-12T04:27:41;21.40;93.20
46356;DHT22;32066;49.474;11.106;2023-09-12T04:30:11;21.40;93.20
46356;DHT22;32066;49.474;11.106;2023-09-12T04:32:40;21.40;93.10
46356;DHT22;32066;49.474;11.106;2023-09-12T04:35:09;21.30;93.20
46356;DHT22;32066;49.474;11.106;2023-09-12T04:37:37;21.30;93.20
46356;DHT22;32066;49.474;11.106;2023-09-12T04:40:10;21.20;93.20
46356;DHT22;32066;49.474;11.106;2023-09-12T04:42:39;21.20;93.30
46356;DHT22;32066;49.474;11.106;2023-09-12T04:45:08;21.20;93.30
46356;DHT22;32066;49.474;11.106;2023-09-12T04:47:37;21.20;93.30
46356;DHT22;32066;49.474;11.106;2023-09-12T04:50:07;21.30;93.30
46356;DHT22;32066;49.474;11.106;2023-09-12T04:52:37;21.30;93.20
46356;DHT22;32066;49.474;11.106;2023-09-12T04:55:09;21.40;93.10
46356;DHT22;32066;49.474;11.106;2023-09-12T04:57:38;21.40;93.00
46356;DHT22;32066;49.474;11.106;2023-09-12T05:00:08;21.40;93.00
46356;DHT22;32066;49.474;11.106;2023-09-12T05:02:37;21.50;92.90
46356;DHT22;32066;49.474;11.106;2023-09-12T05:05:06;21.50;92.70
46356;DHT22;32066;49.474;11.106;2023-09-12T05:07:35;21.50;92.80
46356;DHT22;32066;49.474;11.106;2023-09-12T05:10:04;21.50;92.80
46356;DHT22;32066;49.474;11.106;2023-09-12T05:12:36;21.50;92.70
46356;DHT22;32066;49.474;11.106;2023-09-12T05:15:05;21.50;92.60
46356;DHT22;32066;49.474;11.106;2023-09-12T05:17:34;21.50;92.60
46356;DHT22;32066;49.474;11.106;2023-09-12T05:20:04;21.40;92.60
46356;DHT22;32066;49.474;11.106;2023-09-12T05:22:33;21.40;92.60
46356;DHT22;32066;49.474;11.106;2023-09-12T05:25:01;21.40;92.60
46356;DHT22;32066;49.474;11.106;2023-09-12T05:27:30;21.40;92.50
46356;DHT22;32066;49.474;11.106;2023-09-12T05:30:02;21.30;92.60
46356;DHT22;32066;49.474;11.106;2023-09-12T05:32:31;21.30;92.70
46356;DHT22;32066;49.474;11.106;2023-09-12T05:35:02;21.20;92.70
46356;DHT22;32066;49.474;11.106;2023-09-12T05:37:31;21.20;92.80
46356;DHT22;32066;49.474;11.106;2023-09-12T05:40:00;21.20;92.80
46356;DHT22;32066;49.474;11.106;2023-09-12T05:42:29;21.30;92.90
46356;DHT22;32066;49.474;11.106;2023-09-12T05:44:57;21.40;93.00
46356;DHT22;32066;49.474;11.106;2023-09-12T05:47:29;21.40;92.90
46356;DHT22;32066;49.474;11.106;2023-09-12T05:49:58;21.40;92.90
46356;DHT22;32066;49.474;11.106;2023-09-12T05:52:31;21.50;92.90
46356;DHT22;32066;49.474;11.106;2023-09-12T05:55:00;21.50;93.10
46356;DHT22;32066;49.474;11.106;2023-09-12T05:57:30;21.40;93.20
46356;DHT22;32066;49.474;11.106;2023-09-12T05:59:59;21.20;93.50
46356;DHT22;32066;49.474;11.106;2023-09-12T06:02:40;21.10;93.70
46356;DHT22;32066;49.474;11.106;2023-09-12T06:05:09;21.00;93.90
46356;DHT22;32066;49.474;11.106;2023-09-12T06:07:38;21.10;94.00
46356;DHT22;32066;49.474;11.106;2023-09-12T06:10:07;21.10;93.80
46356;DHT22;32066;49.474;11.106;2023-09-12T06:12:36;21.20;93.70
46356;DHT22;32066;49.474;11.106;2023-09-12T06:15:06;21.10;94.00
46356;DHT22;32066;49.474;11.106;2023-09-12T06:17:34;21.00;94.20
46356;DHT22;32066;49.474;11.106;2023-09-12T06:20:07;21.00;94.30
46356;DHT22;32066;49.474;11.106;2023-09-12T06:22:36;21.00;94.30
46356;DHT22;32066;49.474;11.106;2023-09-12T06:25:06;21.10;94.30
46356;DHT22;32066;49.474;11.106;2023-09-12T06:27:35;21.10;94.20
46356;DHT22;32066;49.474;11.106;2023-09-12T06:30:04;21.10;94.10
46356;DHT22;32066;49.474;11.106;2023-09-12T06:32:33;21.20;94.00
46356;DHT22;32066;49.474;11.106;2023-09-12T06:35:02;21.30;93.90
46356;DHT22;32066;49.474;11.106;2023-09-12T06:37:33;21.20;93.90
46356;DHT22;32066;49.474;11.106;2023-09-12T06:40:02;21.20;94.00
46356;DHT22;32066;49.474;11.106;2023-09-12T06:42:32;21.20;94.20
46356;DHT22;32066;49.474;11.106;2023-09-12T06:45:00;21.30;94.00
46356;DHT22;32066;49.474;11.106;2023-09-12T06:47:29;21.40;93.80
46356;DHT22;32066;49.474;11.106;2023-09-12T06:49:58;21.50;94.00
46356;DHT22;32066;49.474;11.106;2023-09-12T06:52:26;21.40;93.90
46356;DHT22;32066;49.474;11.106;2023-09-12T06:54:58;21.50;94.00
46356;DHT22;32066;49.474;11.106;2023-09-12T06:57:26;21.50;94.00
46356;DHT22;32066;49.474;11.106;2023-09-12T06:59:55;21.70;94.00
46356;DHT22;32066;49.474;11.106;2023-09-12T07:02:26;21.80;93.80
46356;DHT22;32066;49.474;11.106;2023-09-12T07:04:55;21.80;93.50
46356;DHT22;32066;49.474;11.106;2023-09-12T07:07:24;21.90;93.60
46356;DHT22;32066;49.474;11.106;2023-09-12T07:09:53;22.20;95.60
46356;DHT22;32066;49.474;11.106;2023-09-12T07:12:24;22.30;95.00
46356;DHT22;32066;49.474;11.106;2023-09-12T07:14:54;22.40;94.30
46356;DHT22;32066;49.474;11.106;2023-09-12T07:17:23;22.50;93.50
46356;DHT22;32066;49.474;11.106;2023-09-12T07:19:52;22.50;93.50
46356;DHT22;32066;49.474;11.106;2023-09-12T07:22:21;22.70;93.30
46356;DHT22;32066;49.474;11.106;2023-09-12T07:24:49;22.80;93.10
46356;DHT22;32066;49.474;11.106;2023-09-12T07:27:18;22.80;92.70
46356;DHT22;32066;49.474;11.106;2023-09-12T07:29:49;22.90;92.70
46356;DHT22;32066;49.474;11.106;2023-09-12T07:32:18;23.00;92.40
46356;DHT22;32066;49.474;11.106;2023-09-12T07:34:47;23.10;92.50
46356;DHT22;32066;49.474;11.106;2023-09-12T07:37:15;23.20;92.30
46356;DHT22;32066;49.474;11.106;2023-09-12T07:39:44;23.30;91.90
46356;DHT22;32066;49.474;11.106;2023-09-12T07:42:13;23.40;91.90
46356;DHT22;32066;49.474;11.106;2023-09-12T07:44:42;23.40;91.90
46356;DHT22;32066;49.474;11.106;2023-09-12T07:47:13;23.50;92.20
46356;DHT22;32066;49.474;11.106;2023-09-12T07:49:42;23.60;92.10
46356;DHT22;32066;49.474;11.106;2023-09-12T07:52:10;23.70;92.00
46356;DHT22;32066;49.474;11.106;2023-09-12T07:54:39;23.80;91.90
46356;DHT22;32066;49.474;11.106;2023-09-12T07:57:07;24.00;91.60
46356;DHT22;32066;49.474;11.106;2023-09-12T07:59:36;24.10;91.00
46356;DHT22;32066;49.474;11.106;2023-09-12T08:02:05;24.10;90.70
46356;DHT22;32066;49.474;11.106;2023-09-12T08:04:36;24.10;90.60
46356;DHT22;32066;49.474;11.106;2023-09-12T08:07:05;24.10;90.70
46356;DHT22;32066;49.474;11.106;2023-09-12T08:09:48;24.10;90.70
46356;DHT22;32066;49.474;11.106;2023-09-12T08:12:17;24.20;91.10
46356;DHT22;32066;49.474;11.106;2023-09-12T08:14:46;24.30;90.60
46356;DHT22;32066;49.474;11.106;2023-09-12T08:17:15;24.20;90.30
46356;DHT22;32066;49.474;11.106;2023-09-12T08:19:46;24.10;90.70
46356;DHT22;32066;49.474;11.106;2023-09-12T08:22:15;23.70;91.30
46356;DHT22;32066;49.474;11.106;2023-09-12T08:24:44;23.50;91.40
46356;DHT22;32066;49.474;11.106;2023-09-12T08:27:13;23.40;91.80
46356;DHT22;32066;49.474;11.106;2023-09-12T08:29:41;23.70;91.90
46356;DHT22;32066;49.474;11.106;2023-09-12T08:32:13;23.90;91.50
46356;DHT22;32066;49.474;11.106;2023-09-12T08:34:41;24.20;91.50
46356;DHT22;32066;49.474;11.106;2023-09-12T08:37:12;24.50;91.00
46356;DHT22;32066;49.474;11.106;2023-09-12T08:39:42;24.60;90.20
46356;DHT22;32066;49.474;11.106;2023-09-12T08:42:13;24.70;90.20
46356;DHT22;32066;49.474;11.106;2023-09-12T08:44:42;24.70;90.50
46356;DHT22;32066;49.474;11.106;2023-09-12T08:47:12;24.80;90.70
46356;DHT22;32066;49.474;11.106;2023-09-12T08:49:42;25.10;90.80
46356;DHT22;32066;49.474;11.106;2023-09-12T08:52:13;25.30;90.60
46356;DHT22;32066;49.474;11.106;2023-09-12T08:54:42;25.40;90.40
46356;DHT22;32066;49.474;11.106;2023-09-12T08:57:11;25.50;89.10
46356;DHT22;32066;49.474;11.106;2023-09-12T08:59:43;25.70;87.80
46356;DHT22;32066;49.474;11.106;2023-09-12T09:02:14;25.70;87.10
46356;DHT22;32066;49.474;11.106;2023-09-12T09:04:46;25.70;87.70
46356;DHT22;32066;49.474;11.106;2023-09-12T09:07:18;25.80;86.40
46356;DHT22;32066;49.474;11.106;2023-09-12T09:09:48;25.90;87.00
46356;DHT22;32066;49.474;11.106;2023-09-12T09:12:19;26.10;87.40
46356;DHT22;32066;49.474;11.106;2023-09-12T09:14:48;26.30;85.00
46356;DHT22;32066;49.474;11.106;2023-09-12T09:17:16;26.10;85.10
46356;DHT22;32066;49.474;11.106;2023-09-12T09:19:45;26.00;86.50
46356;DHT22;32066;49.474;11.106;2023-09-12T09:22:14;26.10;86.80
46356;DHT22;32066;49.474;11.106;2023-09-12T09:24:45;26.40;86.60
46356;DHT22;32066;49.474;11.106;2023-09-12T09:27:32;26.70;85.30
46356;DHT22;32066;49.474;11.106;2023-09-12T09:30:01;26.80;84.40
46356;DHT22;32066;49.474;11.106;2023-09-12T09:32:30;27.00;83.80
46356;DHT22;32066;49.474;11.106;2023-09-12T09:34:59;27.10;83.90
46356;DHT22;32066;49.474;11.106;2023-09-12T09:37:27;27.30;83.80
46356;DHT22;32066;49.474;11.106;2023-09-12T09:39:59;27.40;83.10
46356;DHT22;32066;49.474;11.106;2023-09-12T09:42:30;27.50;80.50
46356;DHT22;32066;49.474;11.106;2023-09-12T09:45:00;27.40;80.00
46356;DHT22;32066;49.474;11.106;2023-09-12T09:47:29;27.50;80.00
46356;DHT22;32066;49.474;11.106;2023-09-12T09:49:58;27.40;79.70
46356;DHT22;32066;49.474;11.106;2023-09-12T09:52:27;27.30;79.20
46356;DHT22;32066;49.474;11.106;2023-09-12T09:54:58;27.40;79.10
46356;DHT22;32066;49.474;11.106;2023-09-12T09:57:27;27.40;79.10
46356;DHT22;32066;49.474;11.106;2023-09-12T09:59:56;27.50;78.40
46356;DHT22;32066;49.474;11.106;2023-09-12T10:02:26;27.50;79.30
46356;DHT22;32066;49.474;11.106;2023-09-12T10:04:56;27.80;79.40
46356;DHT22;32066;49.474;11.106;2023-09-12T10:07:27;28.00;79.00
46356;DHT22;32066;49.474;11.106;2023-09-12T10:10:00;28.10;79.10
46356;DHT22;32066;49.474;11.106;2023-09-12T10:12:31;28.30;78.50
46356;DHT22;32066;49.474;11.106;2023-09-12T10:15:02;28.60;76.80
46356;DHT22;32066;49.474;11.106;2023-09-12T10:17:36;28.60;76.00
46356;DHT22;32066;49.474;11.106;2023-09-12T10:20:10;28.50;76.40
46356;DHT22;32066;49.474;11.106;2023-09-12T10:22:51;28.50;76.50
46356;DHT22;32066;49.474;11.106;2023-09-12T10:25:23;28.80;76.70
46356;DHT22;32066;49.474;11.106;2023-09-12T10:27:52;28.90;76.20
46356;DHT22;32066;49.474;11.106;2023-09-12T10:30:23;28.70;75.00
46356;DHT22;32066;49.474;11.106;2023-09-12T10:32:52;28.70;76.00
46356;DHT22;32066;49.474;11.106;2023-09-12T10:35:21;28.90;76.10
46356;DHT22;32066;49.474;11.106;2023-09-12T10:37:51;29.10;76.20
46356;DHT22;32066;49.474;11.106;2023-09-12T10:40:23;29.40;75.80
46356;DHT22;32066;49.474;11.106;2023-09-12T10:42:55;29.50;75.40
46356;DHT22;32066;49.474;11.106;2023-09-12T10:45:24;29.60;75.00
46356;DHT22;32066;49.474;11.106;2023-09-12T10:47:53;29.50;75.10
46356;DHT22;32066;49.474;11.106;2023-09-12T10:50:22;29.60;74.20
46356;DHT22;32066;49.474;11.106;2023-09-12T10:52:51;29.60;73.90
46356;DHT22;32066;49.474;11.106;2023-09-12T10:55:22;29.60;74.00
46356;DHT22;32066;49.474;11.106;2023-09-12T10:58:01;29.80;74.10
46356;DHT22;32066;49.474;11.106;2023-09-12T11:00:31;29.90;73.30
46356;DHT22;32066;49.474;11.106;2023-09-12T11:06:01;29.60;73.50
46356;DHT22;32066;49.474;11.106;2023-09-12T11:08:35;29.70;73.60
46356;DHT22;32066;49.474;11.106;2023-09-12T11:11:22;29.60;74.20
46356;DHT22;32066;49.474;11.106;2023-09-12T11:14:03;29.60;73.20
46356;DHT22;32066;49.474;11.106;2023-09-12T11:16:32;29.50;73.70
46356;DHT22;32066;49.474;11.106;2023-09-12T11:19:16;29.70;73.80
46356;DHT22;32066;49.474;11.106;2023-09-12T11:21:47;29.80;73.80
46356;DHT22;32066;49.474;11.106;2023-09-12T11:24:16;29.90;73.40
46356;DHT22;32066;49.474;11.106;2023-09-12T11:26:59;30.00;71.20
46356;DHT22;32066;49.474;11.106;2023-09-12T11:29:29;30.20;71.60
46356;DHT22;32066;49.474;11.106;2023-09-12T11:31:59;30.20;71.70
46356;DHT22;32066;49.474;11.106;2023-09-12T11:34:30;30.20;71.30
46356;DHT22;32066;49.474;11.106;2023-09-12T11:37:04;30.20;71.00
46356;DHT22;32066;49.474;11.106;2023-09-12T11:39:34;30.30;71.10
46356;DHT22;32066;49.474;11.106;2023-09-12T11:42:11;30.40;71.60
46356;DHT22;32066;49.474;11.106;2023-09-12T11:44:41;30.30;70.90
46356;DHT22;32066;49.474;11.106;2023-09-12T11:47:10;29.90;71.50
46356;DHT22;32066;49.474;11.106;2023-09-12T11:49:40;30.20;72.00
46356;DHT22;32066;49.474;11.106;2023-09-12T11:52:10;30.40;70.50
46356;DHT22;32066;49.474;11.106;2023-09-12T11:54:40;30.30;70.10
46356;DHT22;32066;49.474;11.106;2023-09-12T11:57:12;30.30;71.60
46356;DHT22;32066;49.474;11.106;2023-09-12T11:59:43;30.50;71.50
46356;DHT22;32066;49.474;11.106;2023-09-12T12:02:15;30.70;70.70
46356;DHT22;32066;49.474;11.106;2023-09-12T12:04:44;30.80;70.60
46356;DHT22;32066;49.474;11.106;2023-09-12T12:07:13;30.80;69.90
46356;DHT22;32066;49.474;11.106;2023-09-12T12:09:42;30.90;70.60
46356;DHT22;32066;49.474;11.106;2023-09-12T12:12:15;31.00;70.70
46356;DHT22;32066;49.474;11.106;2023-09-12T12:14:43;31.10;70.20
46356;DHT22;32066;49.474;11.106;2023-09-12T12:17:12;30.90;69.50
46356;DHT22;32066;49.474;11.106;2023-09-12T12:19:45;30.90;69.50
46356;DHT22;32066;49.474;11.106;2023-09-12T12:22:17;30.90;69.50
46356;DHT22;32066;49.474;11.106;2023-09-12T12:24:46;31.00;70.50
46356;DHT22;32066;49.474;11.106;2023-09-12T12:27:19;31.20;70.40
46356;DHT22;32066;49.474;11.106;2023-09-12T12:29:51;31.20;69.90
46356;DHT22;32066;49.474;11.106;2023-09-12T12:32:29;31.30;70.10
46356;DHT22;32066;49.474;11.106;2023-09-12T12:35:01;31.30;70.20
46356;DHT22;32066;49.474;11.106;2023-09-12T12:37:32;31.40;70.10
46356;DHT22;32066;49.474;11.106;2023-09-12T12:40:02;31.50;70.20
46356;DHT22;32066;49.474;11.106;2023-09-12T12:42:39;31.60;69.70
46356;DHT22;32066;49.474;11.106;2023-09-12T12:45:11;31.80;67.90
46356;DHT22;32066;49.474;11.106;2023-09-12T12:47:41;31.60;68.10
46356;DHT22;32066;49.474;11.106;2023-09-12T12:50:10;31.60;67.00
46356;DHT22;32066;49.474;11.106;2023-09-12T12:52:40;31.60;67.70
46356;DHT22;32066;49.474;11.106;2023-09-12T12:55:10;31.90;67.80
46356;DHT22;32066;49.474;11.106;2023-09-12T12:57:43;32.00;67.20
46356;DHT22;32066;49.474;11.106;2023-09-12T13:00:14;32.10;67.20
46356;DHT22;32066;49.474;11.106;2023-09-12T13:02:44;32.30;67.00
46356;DHT22;32066;49.474;11.106;2023-09-12T13:05:25;32.40;67.50
46356;DHT22;32066;49.474;11.106;2023-09-12T13:07:54;32.50;67.60
46356;DHT22;32066;49.474;11.106;2023-09-12T13:10:23;32.70;66.90
46356;DHT22;32066;49.474;11.106;2023-09-12T13:12:55;32.70;66.10
46356;DHT22;32066;49.474;11.106;2023-09-12T13:15:24;32.50;66.30
46356;DHT22;32066;49.474;11.106;2023-09-12T13:17:53;32.40;66.60
46356;DHT22;32066;49.474;11.106;2023-09-12T13:20:21;32.50;66.70
46356;DHT22;32066;49.474;11.106;2023-09-12T13:22:50;32.60;65.50
46356;DHT22;32066;49.474;11.106;2023-09-12T13:25:19;32.60;66.10
46356;DHT22;32066;49.474;11.106;2023-09-12T13:27:49;32.70;66.40
46356;DHT22;32066;49.474;11.106;2023-09-12T13:30:20;32.70;65.70
46356;DHT22;32066;49.474;11.106;2023-09-12T13:32:49;32.50;64.00
46356;DHT22;32066;49.474;11.106;2023-09-12T13:35:17;32.20;63.90
46356;DHT22;32066;49.474;11.106;2023-09-12T13:37:46;32.40;65.00
46356;DHT22;32066;49.474;11.106;2023-09-12T13:40:15;32.30;64.30
46356;DHT22;32066;49.474;11.106;2023-09-12T13:42:43;32.40;65.20
46356;DHT22;32066;49.474;11.106;2023-09-12T13:45:12;32.40;64.90
46356;DHT22;32066;49.474;11.106;2023-09-12T13:47:43;32.50;65.20
46356;DHT22;32066;49.474;11.106;2023-09-12T13:50:12;32.60;64.50
46356;DHT22;32066;49.474;11.106;2023-09-12T13:52:41;32.80;64.80
46356;DHT22;32066;49.474;11.106;2023-09-12T13:55:10;32.90;65.00
46356;DHT22;32066;49.474;11.106;2023-09-12T13:57:41;33.10;64.30
46356;DHT22;32066;49.474;11.106;2023-09-12T14:00:11;33.30;64.00
46356;DHT22;32066;49.474;11.106;2023-09-12T14:02:39;33.40;64.30
46356;DHT22;32066;49.474;11.106;2023-09-12T14:05:12;33.60;64.60
46356;DHT22;32066;49.474;11.106;2023-09-12T14:07:41;33.60;64.00
46356;DHT22;32066;49.474;11.106;2023-09-12T14:10:10;33.50;64.20
46356;DHT22;32066;49.474;11.106;2023-09-12T14:12:38;33.70;64.90
46356;DHT22;32066;49.474;11.106;2023-09-12T14:15:08;33.80;61.80
46356;DHT22;32066;49.474;11.106;2023-09-12T14:17:37;33.90;60.80
46356;DHT22;32066;49.474;11.106;2023-09-12T14:20:07;34.10;60.60
46356;DHT22;32066;49.474;11.106;2023-09-12T14:22:39;34.20;61.40
46356;DHT22;32066;49.474;11.106;2023-09-12T14:25:08;34.20;59.70
46356;DHT22;32066;49.474;11.106;2023-09-12T14:27:43;34.20;59.60
46356;DHT22;32066;49.474;11.106;2023-09-12T14:30:12;34.20;59.70
46356;DHT22;32066;49.474;11.106;2023-09-12T14:32:41;34.30;59.10
46356;DHT22;32066;49.474;11.106;2023-09-12T14:35:10;34.10;58.80
46356;DHT22;32066;49.474;11.106;2023-09-12T14:37:41;34.20;58.40
46356;DHT22;32066;49.474;11.106;2023-09-12T14:40:12;34.20;58.60
46356;DHT22;32066;49.474;11.106;2023-09-12T14:42:42;34.00;58.60
46356;DHT22;32066;49.474;11.106;2023-09-12T14:45:11;33.90;57.90
46356;DHT22;32066;49.474;11.106;2023-09-12T14:47:40;33.60;57.80
46356;DHT22;32066;49.474;11.106;2023-09-12T14:50:09;33.40;58.70
46356;DHT22;32066;49.474;11.106;2023-09-12T14:52:37;33.40;58.90
46356;DHT22;32066;49.474;11.106;2023-09-12T14:55:10;33.50;59.60
46356;DHT22;32066;49.474;11.106;2023-09-12T14:57:38;33.60;61.10
46356;DHT22;32066;49.474;11.106;2023-09-12T15:00:08;33.60;61.40
46356;DHT22;32066;49.474;11.106;2023-09-12T15:02:37;33.70;60.80
46356;DHT22;32066;49.474;11.106;2023-09-12T15:05:07;33.70;61.10
46356;DHT22;32066;49.474;11.106;2023-09-12T15:07:36;33.70;61.10
46356;DHT22;32066;49.474;11.106;2023-09-12T15:10:05;33.70;62.10
46356;DHT22;32066;49.474;11.106;2023-09-12T15:12:36;33.80;61.20
46356;DHT22;32066;49.474;11.106;2023-09-12T15:15:06;33.90;61.80
46356;DHT22;32066;49.474;11.106;2023-09-12T15:17:36;34.00;61.70
46356;DHT22;32066;49.474;11.106;2023-09-12T15:20:06;34.00;61.30
46356;DHT22;32066;49.474;11.106;2023-09-12T15:22:36;34.00;61.80
46356;DHT22;32066;49.474;11.106;2023-09-12T15:25:06;33.90;61.60
46356;DHT22;32066;49.474;11.106;2023-09-12T15:27:37;33.90;60.80
46356;DHT22;32066;49.474;11.106;2023-09-12T15:30:07;33.70;60.60
46356;DHT22;32066;49.474;11.106;2023-09-12T15:32:36;33.60;60.60
46356;DHT22;32066;49.474;11.106;2023-09-12T15:35:05;33.60;61.80
46356;DHT22;32066;49.474;11.106;2023-09-12T15:37:36;33.60;62.00